createdAt,value
2022-08-28T00:00:31.484Z,99320.70
2022-08-28T00:03:11.432Z,99318.27
2022-08-28T00:05:42.025Z,99315.92
2022-08-28T00:08:14.074Z,99312.79
2022-08-28T00:10:43.222Z,99308.26
2022-08-28T00:13:18.033Z,99308.08
2022-08-28T00:15:49.437Z,99309.63
2022-08-28T00:18:18.592Z,99306.25
2022-08-28T00:20:47.784Z,99306.87
2022-08-28T00:23:16.731Z,99306.77
2022-08-28T00:25:45.663Z,99305.99
2022-08-28T00:28:23.598Z,99307.09
2022-08-28T00:30:58.527Z,99303.33
2022-08-28T00:33:30.280Z,99307.72
2022-08-28T00:36:00.782Z,99307.11
2022-08-28T00:38:30.559Z,99310.18
2022-08-28T00:41:03.712Z,99312.48
2022-08-28T00:43:37.876Z,99311.55
2022-08-28T00:46:07.188Z,99308.38
2022-08-28T00:48:36.704Z,99310.00
2022-08-28T00:51:25.031Z,99305.28
2022-08-28T00:53:59.021Z,99308.38
2022-08-28T00:56:29.195Z,99308.36
2022-08-28T00:59:03.384Z,99305.98
2022-08-28T01:01:32.299Z,99306.63
2022-08-28T01:04:01.772Z,99306.55
2022-08-28T01:06:30.752Z,99301.46
2022-08-28T01:08:59.780Z,99303.66
2022-08-28T01:11:29.499Z,99298.78
2022-08-28T01:14:01.953Z,99296.48
2022-08-28T01:16:36.108Z,99296.23
2022-08-28T01:19:08.867Z,99290.45
2022-08-28T01:21:46.058Z,99290.09
2022-08-28T01:24:18.078Z,99289.99
2022-08-28T01:26:46.921Z,99292.94
2022-08-28T01:29:15.827Z,99292.70
2022-08-28T01:31:44.603Z,99296.33
2022-08-28T01:34:14.301Z,99299.23
2022-08-28T01:36:43.316Z,99299.63
2022-08-28T01:39:16.038Z,99303.15
2022-08-28T01:41:47.340Z,99301.57
2022-08-28T01:44:18.346Z,99302.91
2022-08-28T01:46:47.515Z,99300.52
2022-08-28T01:49:16.587Z,99309.37
2022-08-28T01:51:45.834Z,99309.48
2022-08-28T01:54:15.272Z,99310.04
2022-08-28T01:56:45.686Z,99311.20
2022-08-28T01:59:15.395Z,99314.02
2022-08-28T02:01:43.968Z,99315.65
2022-08-28T02:04:12.805Z,99314.86
2022-08-28T02:06:41.527Z,99310.54
2022-08-28T02:09:14.746Z,99306.71
2022-08-28T02:11:46.577Z,99305.69
2022-08-28T02:14:16.309Z,99305.52
2022-08-28T02:16:45.098Z,99307.58
2022-08-28T02:19:13.731Z,99310.19
2022-08-28T02:21:42.327Z,99310.77
2022-08-28T02:24:10.956Z,99318.42
2022-08-28T02:26:39.896Z,99320.73
2022-08-28T02:29:08.517Z,99319.36
2022-08-28T02:31:37.627Z,99318.95
2022-08-28T02:34:07.008Z,99314.52
2022-08-28T02:36:39.153Z,99311.77
2022-08-28T02:39:08.265Z,99306.00
2022-08-28T02:41:37.348Z,99305.27
2022-08-28T02:44:07.492Z,99306.02
2022-08-28T02:46:36.136Z,99303.98
2022-08-28T02:49:04.845Z,99305.24
2022-08-28T02:51:34.159Z,99305.16
2022-08-28T02:54:03.000Z,99304.01
2022-08-28T02:56:31.687Z,99304.38
2022-08-28T02:59:00.459Z,99298.70
2022-08-28T03:01:29.329Z,99294.56
2022-08-28T03:03:58.648Z,99297.84
2022-08-28T03:06:27.366Z,99296.62
2022-08-28T03:08:56.398Z,99295.73
2022-08-28T03:11:25.281Z,99298.19
2022-08-28T03:13:54.904Z,99301.47
2022-08-28T03:16:24.504Z,99304.66
2022-08-28T03:18:53.253Z,99305.77
2022-08-28T03:21:22.053Z,99308.25
2022-08-28T03:23:50.680Z,99309.69
2022-08-28T03:26:21.072Z,99309.56
2022-08-28T03:28:52.167Z,99312.74
2022-08-28T03:31:26.404Z,99314.89
2022-08-28T03:33:55.669Z,99319.08
2022-08-28T03:36:27.058Z,99319.02
2022-08-28T03:38:58.754Z,99320.30
2022-08-28T03:41:29.969Z,99325.70
2022-08-28T03:44:00.006Z,99326.21
2022-08-28T03:46:32.152Z,99324.45
2022-08-28T03:49:02.248Z,99323.08
2022-08-28T03:51:33.071Z,99322.15
2022-08-28T03:57:51.055Z,99324.02
2022-08-28T04:00:20.312Z,99325.31
2022-08-28T04:02:48.959Z,99328.86
2022-08-28T04:05:17.895Z,99327.13
2022-08-28T04:07:46.625Z,99330.08
2022-08-28T04:10:15.508Z,99334.39
2022-08-28T04:12:47.425Z,99340.18
2022-08-28T04:15:15.392Z,99341.22
2022-08-28T04:17:43.971Z,99342.48
2022-08-28T04:20:12.949Z,99345.34
2022-08-28T04:22:42.121Z,99346.89
2022-08-28T04:25:14.399Z,99345.95
2022-08-28T04:27:43.210Z,99349.95
2022-08-28T04:30:12.990Z,99353.31
2022-08-28T04:32:45.221Z,99354.09
2022-08-28T04:35:14.242Z,99354.38
2022-08-28T04:37:43.231Z,99359.27
2022-08-28T04:40:15.325Z,99356.94
2022-08-28T04:42:44.778Z,99360.57
2022-08-28T04:45:13.617Z,99367.52
2022-08-28T04:47:42.805Z,99370.17
2022-08-28T04:50:12.275Z,99369.73
2022-08-28T04:52:42.612Z,99369.73
2022-08-28T04:55:11.429Z,99368.89
2022-08-28T04:57:40.240Z,99374.33
2022-08-28T05:00:11.554Z,99374.01
2022-08-28T05:02:40.121Z,99368.27
2022-08-28T05:05:11.171Z,99367.25
2022-08-28T05:07:39.801Z,99366.73
2022-08-28T05:10:14.331Z,99368.79
2022-08-28T05:12:43.405Z,99372.48
2022-08-28T05:15:13.423Z,99377.27
2022-08-28T05:17:42.019Z,99378.92
2022-08-28T05:20:11.905Z,99372.19
2022-08-28T05:22:40.582Z,99367.71
2022-08-28T05:25:10.264Z,99368.33
2022-08-28T05:27:39.762Z,99366.70
2022-08-28T05:30:10.539Z,99365.20
2022-08-28T05:32:41.486Z,99367.05
2022-08-28T05:35:10.540Z,99373.57
2022-08-28T05:37:39.212Z,99375.98
2022-08-28T05:40:11.258Z,99375.42
2022-08-28T05:42:40.059Z,99372.61
2022-08-28T05:45:10.082Z,99373.36
2022-08-28T05:47:39.198Z,99368.38
2022-08-28T05:50:13.037Z,99363.96
2022-08-28T05:52:42.632Z,99363.11
2022-08-28T05:55:12.823Z,99367.78
2022-08-28T05:57:42.087Z,99369.21
2022-08-28T06:00:13.122Z,99372.75
2022-08-28T06:02:42.158Z,99373.98
2022-08-28T06:05:13.084Z,99375.36
2022-08-28T06:07:42.714Z,99380.12
2022-08-28T06:10:11.783Z,99378.91
2022-08-28T06:12:40.673Z,99377.52
2022-08-28T06:15:11.832Z,99377.95
2022-08-28T06:17:40.570Z,99373.59
2022-08-28T06:20:11.380Z,99372.11
2022-08-28T06:22:40.054Z,99372.68
2022-08-28T06:25:13.584Z,99377.63
2022-08-28T06:27:42.598Z,99376.48
2022-08-28T06:30:13.372Z,99383.67
2022-08-28T06:32:41.910Z,99382.42
2022-08-28T06:35:11.577Z,99382.72
2022-08-28T06:37:41.412Z,99384.96
2022-08-28T06:40:11.544Z,99388.52
2022-08-28T06:42:41.202Z,99391.44
2022-08-28T06:45:13.060Z,99392.61
2022-08-28T06:47:41.807Z,99389.43
2022-08-28T06:50:13.160Z,99392.32
2022-08-28T06:52:41.704Z,99393.65
2022-08-28T06:55:11.455Z,99392.16
2022-08-28T06:57:40.528Z,99396.69
2022-08-28T07:00:12.406Z,99404.19
2022-08-28T07:02:43.799Z,99399.91
2022-08-28T07:05:15.006Z,99399.83
2022-08-28T07:07:45.011Z,99396.34
2022-08-28T07:10:13.905Z,99391.85
2022-08-28T07:12:43.055Z,99396.65
2022-08-28T07:15:12.591Z,99395.29
2022-08-28T07:17:42.165Z,99394.14
2022-08-28T07:20:12.980Z,99396.33
2022-08-28T07:22:42.327Z,99398.96
2022-08-28T07:25:11.337Z,99401.81
2022-08-28T07:27:40.408Z,99399.88
2022-08-28T07:30:12.619Z,99401.91
2022-08-28T07:32:48.589Z,99397.83
2022-08-28T07:35:20.410Z,99398.28
2022-08-28T07:37:49.260Z,99397.11
2022-08-28T07:40:19.535Z,99390.19
2022-08-28T07:43:07.039Z,99392.88
2022-08-28T07:45:35.886Z,99395.36
2022-08-28T07:48:10.828Z,99392.56
2022-08-28T07:50:41.403Z,99393.96
2022-08-28T07:53:10.533Z,99392.74
2022-08-28T07:55:39.117Z,99396.74
2022-08-28T07:58:07.771Z,99396.18
2022-08-28T08:00:36.649Z,99394.26
2022-08-28T08:03:06.275Z,99395.70
2022-08-28T08:05:34.890Z,99398.19
2022-08-28T08:08:04.202Z,99394.34
2022-08-28T08:10:33.919Z,99395.40
2022-08-28T08:13:03.410Z,99396.80
2022-08-28T08:15:34.449Z,99398.09
2022-08-28T08:18:03.290Z,99392.70
2022-08-28T08:20:31.857Z,99393.36
2022-08-28T08:23:00.390Z,99397.24
2022-08-28T08:25:29.177Z,99396.98
2022-08-28T08:28:03.271Z,99397.84
2022-08-28T08:30:31.872Z,99396.61
2022-08-28T08:33:00.711Z,99393.68
2022-08-28T08:35:29.689Z,99401.64
2022-08-28T08:38:02.666Z,99401.13
2022-08-28T08:40:31.612Z,99401.52
2022-08-28T08:43:02.817Z,99405.22
2022-08-28T08:45:33.176Z,99408.64
2022-08-28T08:48:02.359Z,99409.36
2022-08-28T08:50:34.474Z,99409.38
2022-08-28T08:53:21.512Z,99412.92
2022-08-28T08:55:51.933Z,99415.09
2022-08-28T08:58:27.976Z,99418.98
2022-08-28T09:01:04.621Z,99414.54
2022-08-28T09:03:49.693Z,99413.01
2022-08-28T09:06:29.620Z,99420.01
2022-08-28T09:09:02.625Z,99417.04
2022-08-28T09:11:44.200Z,99417.72
2022-08-28T09:14:20.553Z,99416.60
2022-08-28T09:16:49.375Z,99418.01
2022-08-28T09:19:21.132Z,99416.61
2022-08-28T09:21:51.412Z,99415.54
2022-08-28T09:24:26.141Z,99416.52
2022-08-28T09:26:58.022Z,99415.65
2022-08-28T09:29:31.139Z,99417.80
2022-08-28T09:32:17.332Z,99419.89
2022-08-28T09:35:02.152Z,99411.56
2022-08-28T09:37:32.092Z,99412.50
2022-08-28T09:40:23.427Z,99412.02
2022-08-28T09:43:21.432Z,99411.34
2022-08-28T09:45:57.602Z,99412.38
2022-08-28T09:48:33.432Z,99411.84
2022-08-28T09:51:04.291Z,99414.08
2022-08-28T09:53:33.701Z,99414.29
2022-08-28T09:56:13.271Z,99419.87
2022-08-28T09:58:44.772Z,99424.13
2022-08-28T10:01:29.882Z,99422.76
2022-08-28T10:04:11.485Z,99424.67
2022-08-28T10:06:43.638Z,99422.96
2022-08-28T10:09:21.312Z,99423.84
2022-08-28T10:12:00.611Z,99424.73
2022-08-28T10:14:41.505Z,99427.00
2022-08-28T10:17:21.765Z,99426.95
2022-08-28T10:20:00.689Z,99429.10
2022-08-28T10:22:59.291Z,99424.73
2022-08-28T10:25:34.003Z,99419.22
2022-08-28T10:28:17.569Z,99416.51
2022-08-28T10:30:58.437Z,99419.93
2022-08-28T10:33:49.851Z,99416.61
2022-08-28T10:36:27.399Z,99413.33
2022-08-28T10:39:17.725Z,99416.77
2022-08-28T10:41:50.376Z,99419.53
2022-08-28T10:44:25.471Z,99425.45
2022-08-28T11:48:49.788Z,99436.77
2022-08-28T11:51:55.843Z,99431.64
2022-08-28T11:54:45.817Z,99428.95
2022-08-28T11:57:22.116Z,99427.17
2022-08-28T12:00:10.282Z,99423.27
2022-08-28T12:02:52.832Z,99420.89
2022-08-28T12:05:44.263Z,99416.63
2022-08-28T12:08:58.586Z,99412.55
2022-08-28T12:12:10.200Z,99417.16
2022-08-28T12:15:03.628Z,99420.19
2022-08-28T12:17:56.694Z,99423.00
2022-08-28T12:20:36.824Z,99426.55
2022-08-28T12:23:32.158Z,99429.21
2022-08-28T12:26:04.336Z,99424.00
2022-08-28T12:28:39.158Z,99421.63
2022-08-28T12:32:04.597Z,99418.19
2022-08-28T12:34:41.939Z,99422.59
2022-08-28T12:37:27.441Z,99426.81
2022-08-28T12:39:59.210Z,99444.83
2022-08-28T12:42:32.153Z,99451.27
2022-08-28T12:45:05.446Z,99448.10
2022-08-28T12:47:35.813Z,99448.55
2022-08-28T12:50:21.884Z,99434.33
2022-08-28T12:52:53.368Z,99434.64
2022-08-28T12:55:24.557Z,99438.73
2022-08-28T12:57:54.330Z,99445.98
2022-08-28T13:00:26.386Z,99445.98
2022-08-28T13:02:56.685Z,99448.64
2022-08-28T13:05:31.243Z,99445.40
2022-08-28T13:08:03.487Z,99447.05
2022-08-28T13:10:36.845Z,99450.68
2022-08-28T13:13:10.235Z,99452.08
2022-08-28T13:15:57.930Z,99459.12
2022-08-28T13:18:49.256Z,99465.19
2022-08-28T13:21:34.391Z,99459.46
2022-08-28T13:24:39.681Z,99461.84
2022-08-28T14:52:14.637Z,99471.48
2022-08-28T14:54:43.387Z,99473.41
2022-08-28T14:57:21.501Z,99471.56
2022-08-28T14:59:51.143Z,99472.45
2022-08-28T15:02:20.900Z,99474.10
2022-08-28T15:04:51.273Z,99472.94
2022-08-28T15:07:22.099Z,99472.01
2022-08-28T15:09:50.634Z,99478.84
2022-08-28T15:12:23.089Z,99478.02
2022-08-28T15:14:57.342Z,99478.05
2022-08-28T15:17:33.937Z,99480.73
2022-08-28T15:20:05.744Z,99487.15
2022-08-28T15:22:35.739Z,99487.98
2022-08-28T15:25:17.751Z,99491.11
2022-08-28T15:27:46.829Z,99495.02
2022-08-28T15:30:16.448Z,99497.04
2022-08-28T15:32:46.734Z,99499.58
2022-08-28T15:35:15.866Z,99502.02
2022-08-28T15:37:44.764Z,99513.42
2022-08-28T15:40:31.824Z,99511.61
2022-08-28T15:43:00.661Z,99515.63
2022-08-28T15:45:29.508Z,99516.84
2022-08-28T15:47:58.776Z,99522.98
2022-08-28T15:50:27.330Z,99521.41
2022-08-28T15:52:56.339Z,99526.78
2022-08-28T15:55:27.997Z,99523.06
2022-08-28T15:58:00.399Z,99527.64
2022-08-28T16:00:33.349Z,99527.52
2022-08-28T16:03:03.667Z,99532.13
2022-08-28T16:05:35.917Z,99534.44
2022-08-28T16:08:10.271Z,99533.50
2022-08-28T16:10:40.170Z,99537.34
2022-08-28T16:13:10.646Z,99532.56
2022-08-28T16:15:40.591Z,99534.61
2022-08-28T16:18:09.136Z,99536.11
2022-08-28T16:20:39.084Z,99535.98
2022-08-28T16:23:08.883Z,99540.50
2022-08-28T16:25:38.121Z,99539.44
2022-08-28T16:28:10.374Z,99538.73
2022-08-28T16:30:43.734Z,99544.46
2022-08-28T16:33:15.692Z,99549.52
2022-08-28T16:35:49.427Z,99549.59
2022-08-28T16:38:26.763Z,99553.99
2022-08-28T16:40:55.570Z,99552.91
2022-08-28T16:43:24.703Z,99553.42
2022-08-28T16:45:54.281Z,99553.13
2022-08-28T16:48:23.567Z,99555.38
2022-08-28T16:50:53.249Z,99551.98
2022-08-28T16:53:22.451Z,99556.04
2022-08-28T16:55:56.612Z,99555.00
2022-08-28T16:58:26.319Z,99557.37
2022-08-28T17:00:56.063Z,99559.17
2022-08-28T17:03:26.667Z,99562.02
2022-08-28T17:06:02.739Z,99559.40
2022-08-28T17:08:31.268Z,99561.67
2022-08-28T17:11:00.791Z,99566.28
2022-08-28T17:13:29.565Z,99570.41
2022-08-28T17:15:58.237Z,99572.26
2022-08-28T17:18:27.075Z,99576.20
2022-08-28T17:21:18.389Z,99580.20
2022-08-28T17:23:49.168Z,99586.45
2022-08-28T17:26:18.885Z,99586.27
2022-08-28T17:28:48.125Z,99586.71
2022-08-28T17:31:17.498Z,99589.50
2022-08-28T17:33:46.198Z,99593.65
2022-08-28T17:36:21.346Z,99598.14
2022-08-28T17:39:03.163Z,99600.52
2022-08-28T17:41:35.432Z,99601.84
2022-08-28T17:44:04.861Z,99605.52
2022-08-28T17:46:37.707Z,99610.27
2022-08-28T17:49:09.377Z,99613.54
2022-08-28T17:51:43.486Z,99611.30
2022-08-28T17:54:16.139Z,99613.48
2022-08-28T17:56:45.857Z,99617.46
2022-08-28T17:59:16.547Z,99617.77
2022-08-28T18:01:46.904Z,99617.20
2022-08-28T18:04:23.881Z,99623.10
2022-08-28T18:06:55.183Z,99624.98
2022-08-28T18:09:25.142Z,99627.87
2022-08-28T18:11:54.030Z,99633.02
2022-08-28T18:14:22.527Z,99640.16
2022-08-28T18:16:52.622Z,99637.30
2022-08-28T18:19:21.316Z,99642.00
2022-08-28T18:21:53.909Z,99646.05
2022-08-28T18:24:22.670Z,99646.83
2022-08-28T18:26:57.639Z,99647.84
2022-08-28T18:29:26.786Z,99651.27
2022-08-28T18:31:55.903Z,99657.80
2022-08-28T18:34:24.679Z,99660.71
2022-08-28T18:36:53.325Z,99661.54
2022-08-28T18:39:29.617Z,99661.88
2022-08-28T18:41:59.013Z,99662.00
2022-08-28T18:44:27.944Z,99660.31
2022-08-28T18:46:56.726Z,99661.77
2022-08-28T18:49:28.448Z,99662.48
2022-08-28T18:51:58.700Z,99661.80
2022-08-28T18:54:27.983Z,99662.11
2022-08-28T18:57:04.149Z,99661.17
2022-08-28T18:59:35.971Z,99660.11
2022-08-28T19:02:04.754Z,99660.62
2022-08-28T19:04:33.486Z,99659.55
2022-08-28T19:07:09.535Z,99662.59
2022-08-28T19:09:38.733Z,99667.41
2022-08-28T19:12:09.194Z,99670.73
2022-08-28T19:14:37.924Z,99671.92
2022-08-28T19:17:07.231Z,99677.98
2022-08-28T19:19:36.324Z,99675.92
2022-08-28T19:22:07.632Z,99679.24
2022-08-28T19:24:37.071Z,99689.36
2022-08-28T19:27:07.182Z,99686.73
2022-08-28T19:29:36.576Z,99689.42
2022-08-28T19:32:07.827Z,99688.66
2022-08-28T19:34:36.564Z,99688.04
2022-08-28T19:37:05.760Z,99688.98
2022-08-28T19:39:34.491Z,99687.87
2022-08-28T19:42:03.162Z,99688.51
2022-08-28T19:44:34.272Z,99685.80
2022-08-28T19:47:03.702Z,99680.89
2022-08-28T19:49:32.739Z,99680.23
2022-08-28T19:52:02.405Z,99683.52
2022-08-28T19:54:32.840Z,99693.24
2022-08-28T19:57:02.004Z,99694.30
2022-08-28T19:59:31.988Z,99691.63
2022-08-28T20:02:03.018Z,99693.89
2022-08-28T20:04:33.279Z,99694.60
2022-08-28T20:07:02.280Z,99700.48
2022-08-28T20:09:30.910Z,99701.58
2022-08-28T20:12:00.229Z,99700.98
2022-08-28T20:14:28.941Z,99701.75
2022-08-28T20:16:59.884Z,99704.92
2022-08-28T20:19:28.481Z,99708.38
2022-08-28T20:21:57.286Z,99708.73
2022-08-28T20:24:26.156Z,99710.30
2022-08-28T20:26:54.915Z,99709.52
2022-08-28T20:29:23.783Z,99712.41
2022-08-28T20:31:53.517Z,99711.52
2022-08-28T20:34:22.648Z,99712.69
2022-08-28T20:36:51.503Z,99712.63
2022-08-28T20:39:21.124Z,99716.73
2022-08-28T20:41:50.350Z,99717.98
2022-08-28T20:44:20.689Z,99715.65
2022-08-28T20:46:51.343Z,99715.45
2022-08-28T20:49:21.683Z,99709.50
2022-08-28T20:51:55.737Z,99715.60
2022-08-28T20:54:28.473Z,99711.86
2022-08-28T20:56:59.578Z,99714.35
2022-08-28T20:59:34.401Z,99714.98
2022-08-28T21:02:11.476Z,99719.23
2022-08-28T21:04:41.367Z,99723.66
2022-08-28T21:07:10.296Z,99724.21
2022-08-28T21:10:05.181Z,99719.85
2022-08-28T21:12:28.016Z,99723.37
2022-08-28T21:14:56.684Z,99726.67
2022-08-28T21:17:29.695Z,99727.58
2022-08-28T21:20:01.687Z,99727.25
2022-08-28T21:22:30.834Z,99733.55
2022-08-28T21:24:59.450Z,99729.81
2022-08-28T21:27:28.571Z,99738.38
2022-08-28T21:29:58.737Z,99736.25
2022-08-28T21:32:29.536Z,99738.80
2022-08-28T21:34:58.094Z,99741.44
2022-08-28T21:37:27.068Z,99745.21
2022-08-28T21:39:56.495Z,99745.24
2022-08-28T21:42:25.771Z,99747.34
2022-08-28T21:44:54.548Z,99748.48
2022-08-28T21:47:23.928Z,99748.80
2022-08-28T21:49:54.192Z,99752.14
2022-08-28T21:52:26.497Z,99754.54
2022-08-28T21:54:58.654Z,99754.20
2022-08-28T21:57:28.326Z,99757.37
2022-08-28T21:59:58.189Z,99756.70
2022-08-28T22:02:27.115Z,99758.25
2022-08-28T22:04:56.005Z,99763.39
2022-08-28T22:07:24.621Z,99762.67
2022-08-28T22:09:53.407Z,99764.36
2022-08-28T22:12:22.155Z,99763.61
2022-08-28T22:14:50.633Z,99760.56
2022-08-28T22:17:19.304Z,99762.83
2022-08-28T22:19:49.042Z,99766.45
2022-08-28T22:22:36.292Z,99769.31
2022-08-28T22:25:06.635Z,99764.15
2022-08-28T22:27:35.339Z,99766.88
2022-08-28T22:30:05.102Z,99766.92
2022-08-28T22:32:34.023Z,99769.17
2022-08-28T22:35:02.623Z,99772.28
2022-08-28T22:37:31.628Z,99767.11
2022-08-28T22:40:00.220Z,99767.34
2022-08-28T22:42:29.355Z,99771.63
2022-08-28T22:44:58.110Z,99773.52
2022-08-28T22:47:27.428Z,99775.89
2022-08-28T22:49:58.896Z,99778.09
2022-08-28T22:52:27.700Z,99778.49
2022-08-28T22:54:56.345Z,99783.48
2022-08-28T22:57:25.187Z,99780.72
2022-08-28T22:59:53.963Z,99782.62
2022-08-28T23:02:22.560Z,99781.77
2022-08-28T23:04:56.309Z,99783.87
2022-08-28T23:07:24.904Z,99785.75
2022-08-28T23:09:53.466Z,99784.27
2022-08-28T23:12:21.966Z,99783.09
2022-08-28T23:14:51.393Z,99782.23
2022-08-28T23:17:19.879Z,99784.48
2022-08-28T23:19:49.186Z,99786.81
2022-08-28T23:22:18.774Z,99787.11
2022-08-28T23:24:48.099Z,99787.59
2022-08-28T23:27:35.762Z,99791.88
2022-08-28T23:30:07.994Z,99793.88
2022-08-28T23:32:36.696Z,99792.55
2022-08-28T23:35:07.539Z,99795.31
2022-08-28T23:37:38.459Z,99799.02
2022-08-28T23:40:11.491Z,99797.24
2022-08-28T23:42:41.203Z,99797.25
2022-08-28T23:45:12.355Z,99800.01
2022-08-28T23:47:41.214Z,99802.08
2022-08-28T23:50:13.063Z,99803.20
2022-08-28T23:52:43.136Z,99801.35
2022-08-28T23:55:14.995Z,99806.55
2022-08-28T23:57:43.871Z,99805.33
